sensor_id;sensor_type;location;lat;lon;timestamp;temperature;humidity
41904;DHT22;27586;51.124;4.182;2022-11-15T00:01:44;10.30;99.90
41904;DHT22;27586;51.124;4.182;2022-11-15T00:04:10;10.30;99.90
41904;DHT22;27586;51.124;4.182;2022-11-15T01:14:51;10.10;99.90
41904;DHT22;27586;51.124;4.182;2022-11-15T01:17:17;10.80;99.90
41904;DHT22;27586;51.124;4.182;2022-11-15T01:19:42;10.90;99.90
41904;DHT22;27586;51.124;4.182;2022-11-15T01:22:08;10.90;99.90
41904;DHT22;27586;51.124;4.182;2022-11-15T01:24:34;11.00;99.90
41904;DHT22;27586;51.124;4.182;2022-11-15T01:26:59;10.90;99.90
41904;DHT22;27586;51.124;4.182;2022-11-15T01:29:25;11.00;99.90
41904;DHT22;27586;51.124;4.182;2022-11-15T01:31:53;11.00;99.90
41904;DHT22;27586;51.124;4.182;2022-11-15T01:34:19;11.10;99.90
41904;DHT22;27586;51.124;4.182;2022-11-15T01:36:44;11.10;99.90
41904;DHT22;27586;51.124;4.182;2022-11-15T01:39:10;11.10;99.90
41904;DHT22;27586;51.124;4.182;2022-11-15T01:41:36;11.10;99.90
41904;DHT22;27586;51.124;4.182;2022-11-15T01:44:40;11.10;99.90
41904;DHT22;27586;51.124;4.182;2022-11-15T01:47:11;11.10;99.90
41904;DHT22;27586;51.124;4.182;2022-11-15T01:49:40;11.20;99.90
41904;DHT22;27586;51.124;4.182;2022-11-15T01:52:12;11.20;99.90
41904;DHT22;27586;51.124;4.182;2022-11-15T01:54:38;11.20;99.90
41904;DHT22;27586;51.124;4.182;2022-11-15T01:57:07;11.20;99.90
41904;DHT22;27586;51.124;4.182;2022-11-15T01:59:36;11.20;99.90
41904;DHT22;27586;51.124;4.182;2022-11-15T02:02:02;11.20;99.90
41904;DHT22;27586;51.124;4.182;2022-11-15T02:04:31;11.30;99.90
41904;DHT22;27586;51.124;4.182;2022-11-15T02:06:57;11.30;99.90
41904;DHT22;27586;51.124;4.182;2022-11-15T02:09:23;11.20;99.90
41904;DHT22;27586;51.124;4.182;2022-11-15T02:11:50;11.30;99.90
41904;DHT22;27586;51.124;4.182;2022-11-15T02:14:19;11.30;99.90
41904;DHT22;27586;51.124;4.182;2022-11-15T02:16:58;11.30;99.90
41904;DHT22;27586;51.124;4.182;2022-11-15T02:22:22;11.30;99.90
41904;DHT22;27586;51.124;4.182;2022-11-15T02:33:40;11.30;99.90
41904;DHT22;27586;51.124;4.182;2022-11-15T02:36:18;11.40;99.90
41904;DHT22;27586;51.124;4.182;2022-11-15T02:39:10;11.30;99.90
41904;DHT22;27586;51.124;4.182;2022-11-15T02:42:00;11.30;99.90
41904;DHT22;27586;51.124;4.182;2022-11-15T02:44:43;11.30;99.90
41904;DHT22;27586;51.124;4.182;2022-11-15T02:47:13;11.40;99.90
41904;DHT22;27586;51.124;4.182;2022-11-15T02:49:45;11.40;99.90
41904;DHT22;27586;51.124;4.182;2022-11-15T02:52:19;11.40;99.90
41904;DHT22;27586;51.124;4.182;2022-11-15T02:54:59;11.30;99.90
41904;DHT22;27586;51.124;4.182;2022-11-15T02:57:39;11.30;99.90
41904;DHT22;27586;51.124;4.182;2022-11-15T03:00:34;11.40;99.90
41904;DHT22;27586;51.124;4.182;2022-11-15T03:03:46;11.30;99.90
41904;DHT22;27586;51.124;4.182;2022-11-15T03:06:26;11.30;99.90
41904;DHT22;27586;51.124;4.182;2022-11-15T03:11:39;11.30;99.90
41904;DHT22;27586;51.124;4.182;2022-11-15T03:14:30;11.30;99.90
41904;DHT22;27586;51.124;4.182;2022-11-15T03:17:15;11.30;99.90
41904;DHT22;27586;51.124;4.182;2022-11-15T03:19:47;11.30;99.90
41904;DHT22;27586;51.124;4.182;2022-11-15T03:22:19;11.20;99.90
41904;DHT22;27586;51.124;4.182;2022-11-15T03:24:47;11.30;99.90
41904;DHT22;27586;51.124;4.182;2022-11-15T03:27:18;11.30;99.90
41904;DHT22;27586;51.124;4.182;2022-11-15T03:29:54;11.20;99.90
41904;DHT22;27586;51.124;4.182;2022-11-15T03:32:26;11.20;99.90
41904;DHT22;27586;51.124;4.182;2022-11-15T03:34:55;11.30;99.90
41904;DHT22;27586;51.124;4.182;2022-11-15T03:37:29;11.30;99.90
41904;DHT22;27586;51.124;4.182;2022-11-15T03:39:56;11.30;99.90
41904;DHT22;27586;51.124;4.182;2022-11-15T03:42:29;11.30;99.90
41904;DHT22;27586;51.124;4.182;2022-11-15T03:45:03;11.30;99.90
41904;DHT22;27586;51.124;4.182;2022-11-15T03:47:54;11.30;99.90
41904;DHT22;27586;51.124;4.182;2022-11-15T03:50:22;11.30;99.90
41904;DHT22;27586;51.124;4.182;2022-11-15T03:52:49;11.20;99.90
41904;DHT22;27586;51.124;4.182;2022-11-15T03:55:18;11.20;99.90
41904;DHT22;27586;51.124;4.182;2022-11-15T03:57:44;11.20;99.90
41904;DHT22;27586;51.124;4.182;2022-11-15T04:00:10;11.20;99.90
41904;DHT22;27586;51.124;4.182;2022-11-15T04:02:37;11.20;99.90
41904;DHT22;27586;51.124;4.182;2022-11-15T04:05:03;11.20;99.90
41904;DHT22;27586;51.124;4.182;2022-11-15T04:07:29;11.10;99.90
41904;DHT22;27586;51.124;4.182;2022-11-15T04:09:54;11.10;99.90
41904;DHT22;27586;51.124;4.182;2022-11-15T04:12:34;11.10;99.90
41904;DHT22;27586;51.124;4.182;2022-11-15T04:15:09;11.10;99.90
41904;DHT22;27586;51.124;4.182;2022-11-15T04:17:40;11.00;99.90
41904;DHT22;27586;51.124;4.182;2022-11-15T04:20:18;11.00;99.90
41904;DHT22;27586;51.124;4.182;2022-11-15T04:23:09;11.00;99.90
41904;DHT22;27586;51.124;4.182;2022-11-15T04:25:55;11.00;99.90
41904;DHT22;27586;51.124;4.182;2022-11-15T04:28:21;10.90;99.90
41904;DHT22;27586;51.124;4.182;2022-11-15T04:30:47;10.90;99.90
41904;DHT22;27586;51.124;4.182;2022-11-15T04:33:13;11.00;99.90
41904;DHT22;27586;51.124;4.182;2022-11-15T04:35:39;11.00;99.90
41904;DHT22;27586;51.124;4.182;2022-11-15T04:38:06;11.00;99.90
41904;DHT22;27586;51.124;4.182;2022-11-15T04:40:33;11.00;99.90
41904;DHT22;27586;51.124;4.182;2022-11-15T04:42:59;11.00;99.90
41904;DHT22;27586;51.124;4.182;2022-11-15T04:45:25;10.90;99.90
41904;DHT22;27586;51.124;4.182;2022-11-15T04:47:50;10.90;99.90
41904;DHT22;27586;51.124;4.182;2022-11-15T04:50:16;11.00;99.90
41904;DHT22;27586;51.124;4.182;2022-11-15T04:52:46;11.00;99.90
41904;DHT22;27586;51.124;4.182;2022-11-15T04:55:15;10.90;99.90
41904;DHT22;27586;51.124;4.182;2022-11-15T04:57:41;11.00;99.90
41904;DHT22;27586;51.124;4.182;2022-11-15T05:00:09;10.90;99.90
41904;DHT22;27586;51.124;4.182;2022-11-15T05:02:35;10.80;99.90
41904;DHT22;27586;51.124;4.182;2022-11-15T05:05:19;10.80;99.90
41904;DHT22;27586;51.124;4.182;2022-11-15T05:07:45;10.70;99.90
41904;DHT22;27586;51.124;4.182;2022-11-15T05:10:11;10.60;99.90
41904;DHT22;27586;51.124;4.182;2022-11-15T05:12:37;10.50;99.90
41904;DHT22;27586;51.124;4.182;2022-11-15T05:15:03;10.50;99.90
41904;DHT22;27586;51.124;4.182;2022-11-15T05:17:28;10.50;99.90
41904;DHT22;27586;51.124;4.182;2022-11-15T05:19:54;10.40;99.90
41904;DHT22;27586;51.124;4.182;2022-11-15T05:22:20;10.40;99.90
41904;DHT22;27586;51.124;4.182;2022-11-15T05:24:46;10.40;99.90
41904;DHT22;27586;51.124;4.182;2022-11-15T05:27:12;10.30;99.90
41904;DHT22;27586;51.124;4.182;2022-11-15T05:29:37;10.30;99.90
41904;DHT22;27586;51.124;4.182;2022-11-15T05:32:06;10.30;99.90
41904;DHT22;27586;51.124;4.182;2022-11-15T05:34:33;10.30;99.90
41904;DHT22;27586;51.124;4.182;2022-11-15T05:36:59;10.30;99.90
41904;DHT22;27586;51.124;4.182;2022-11-15T05:39:25;10.20;99.90
41904;DHT22;27586;51.124;4.182;2022-11-15T05:41:59;10.20;99.90
41904;DHT22;27586;51.124;4.182;2022-11-15T05:44:27;10.20;99.90
41904;DHT22;27586;51.124;4.182;2022-11-15T05:46:54;10.10;99.90
41904;DHT22;27586;51.124;4.182;2022-11-15T05:49:25;10.00;99.90
41904;DHT22;27586;51.124;4.182;2022-11-15T05:51:53;10.00;99.90
41904;DHT22;27586;51.124;4.182;2022-11-15T05:54:20;9.90;99.90
41904;DHT22;27586;51.124;4.182;2022-11-15T05:56:47;9.90;99.90
41904;DHT22;27586;51.124;4.182;2022-11-15T05:59:14;10.00;99.90
41904;DHT22;27586;51.124;4.182;2022-11-15T06:01:40;9.90;99.90
41904;DHT22;27586;51.124;4.182;2022-11-15T06:04:06;9.90;99.90
41904;DHT22;27586;51.124;4.182;2022-11-15T06:06:31;10.00;99.90
41904;DHT22;27586;51.124;4.182;2022-11-15T06:08:57;10.00;99.90
41904;DHT22;27586;51.124;4.182;2022-11-15T06:11:22;10.10;99.90
41904;DHT22;27586;51.124;4.182;2022-11-15T06:13:48;10.10;99.90
41904;DHT22;27586;51.124;4.182;2022-11-15T06:16:14;10.00;99.90
41904;DHT22;27586;51.124;4.182;2022-11-15T06:18:39;10.00;99.90
41904;DHT22;27586;51.124;4.182;2022-11-15T06:21:05;10.00;99.90
41904;DHT22;27586;51.124;4.182;2022-11-15T06:23:32;10.00;99.90
41904;DHT22;27586;51.124;4.182;2022-11-15T06:26:00;10.00;99.90
41904;DHT22;27586;51.124;4.182;2022-11-15T06:28:32;10.10;99.90
41904;DHT22;27586;51.124;4.182;2022-11-15T06:31:09;10.20;99.90
41904;DHT22;27586;51.124;4.182;2022-11-15T06:33:37;10.20;99.90
41904;DHT22;27586;51.124;4.182;2022-11-15T06:36:04;10.20;99.90
41904;DHT22;27586;51.124;4.182;2022-11-15T06:38:30;10.20;99.90
41904;DHT22;27586;51.124;4.182;2022-11-15T06:41:02;10.20;99.90
41904;DHT22;27586;51.124;4.182;2022-11-15T06:43:28;10.20;99.90
41904;DHT22;27586;51.124;4.182;2022-11-15T06:45:53;10.10;99.90
41904;DHT22;27586;51.124;4.182;2022-11-15T06:48:19;10.10;99.90
41904;DHT22;27586;51.124;4.182;2022-11-15T06:50:51;10.00;99.90
41904;DHT22;27586;51.124;4.182;2022-11-15T06:53:17;10.00;99.90
41904;DHT22;27586;51.124;4.182;2022-11-15T06:55:42;9.90;99.90
41904;DHT22;27586;51.124;4.182;2022-11-15T06:58:08;9.80;99.90
41904;DHT22;27586;51.124;4.182;2022-11-15T07:00:34;9.80;99.90
41904;DHT22;27586;51.124;4.182;2022-11-15T07:03:00;9.80;99.90
41904;DHT22;27586;51.124;4.182;2022-11-15T07:05:26;9.70;99.90
41904;DHT22;27586;51.124;4.182;2022-11-15T07:07:56;9.60;99.90
41904;DHT22;27586;51.124;4.182;2022-11-15T07:10:23;9.60;99.90
41904;DHT22;27586;51.124;4.182;2022-11-15T07:12:50;9.60;99.90
41904;DHT22;27586;51.124;4.182;2022-11-15T07:15:17;9.60;99.90
41904;DHT22;27586;51.124;4.182;2022-11-15T07:17:43;9.50;99.90
41904;DHT22;27586;51.124;4.182;2022-11-15T07:20:09;9.50;99.90
41904;DHT22;27586;51.124;4.182;2022-11-15T07:22:35;9.50;99.90
41904;DHT22;27586;51.124;4.182;2022-11-15T07:25:01;9.60;99.90
41904;DHT22;27586;51.124;4.182;2022-11-15T07:27:27;9.60;99.90
41904;DHT22;27586;51.124;4.182;2022-11-15T07:29:52;9.60;99.90
41904;DHT22;27586;51.124;4.182;2022-11-15T07:32:18;9.60;99.90
41904;DHT22;27586;51.124;4.182;2022-11-15T07:34:44;9.60;99.90
41904;DHT22;27586;51.124;4.182;2022-11-15T07:37:11;9.60;99.90
41904;DHT22;27586;51.124;4.182;2022-11-15T07:39:37;9.60;99.90
41904;DHT22;27586;51.124;4.182;2022-11-15T07:42:02;9.70;99.90
41904;DHT22;27586;51.124;4.182;2022-11-15T07:44:46;9.60;99.90
41904;DHT22;27586;51.124;4.182;2022-11-15T07:47:12;9.70;99.90
41904;DHT22;27586;51.124;4.182;2022-11-15T07:49:38;9.80;99.90
41904;DHT22;27586;51.124;4.182;2022-11-15T07:52:03;9.70;99.90
41904;DHT22;27586;51.124;4.182;2022-11-15T07:54:29;9.80;99.90
41904;DHT22;27586;51.124;4.182;2022-11-15T07:56:55;9.80;99.90
41904;DHT22;27586;51.124;4.182;2022-11-15T07:59:20;9.80;99.90
41904;DHT22;27586;51.124;4.182;2022-11-15T08:01:46;9.90;99.90
41904;DHT22;27586;51.124;4.182;2022-11-15T08:04:12;9.90;99.90
41904;DHT22;27586;51.124;4.182;2022-11-15T08:06:37;10.00;99.90
41904;DHT22;27586;51.124;4.182;2022-11-15T08:09:03;10.10;99.90
41904;DHT22;27586;51.124;4.182;2022-11-15T08:11:29;10.10;99.90
41904;DHT22;27586;51.124;4.182;2022-11-15T08:13:55;10.20;99.90
41904;DHT22;27586;51.124;4.182;2022-11-15T08:16:20;10.30;99.90
41904;DHT22;27586;51.124;4.182;2022-11-15T08:18:46;10.40;99.90
41904;DHT22;27586;51.124;4.182;2022-11-15T08:21:16;10.40;99.90
41904;DHT22;27586;51.124;4.182;2022-11-15T08:23:43;10.40;99.90
41904;DHT22;27586;51.124;4.182;2022-11-15T08:26:09;10.40;99.90
41904;DHT22;27586;51.124;4.182;2022-11-15T08:28:34;10.50;99.90
41904;DHT22;27586;51.124;4.182;2022-11-15T08:31:00;10.60;99.90
41904;DHT22;27586;51.124;4.182;2022-11-15T08:33:26;10.60;99.90
41904;DHT22;27586;51.124;4.182;2022-11-15T08:35:52;10.60;99.90
41904;DHT22;27586;51.124;4.182;2022-11-15T08:38:17;10.60;99.90
41904;DHT22;27586;51.124;4.182;2022-11-15T08:40:43;10.50;99.90
41904;DHT22;27586;51.124;4.182;2022-11-15T08:43:08;10.60;99.90
41904;DHT22;27586;51.124;4.182;2022-11-15T08:45:35;10.50;99.90
41904;DHT22;27586;51.124;4.182;2022-11-15T08:48:02;10.60;99.90
41904;DHT22;27586;51.124;4.182;2022-11-15T08:50:28;10.60;99.90
41904;DHT22;27586;51.124;4.182;2022-11-15T08:52:53;10.50;99.90
41904;DHT22;27586;51.124;4.182;2022-11-15T08:55:19;10.50;99.90
41904;DHT22;27586;51.124;4.182;2022-11-15T08:57:45;10.60;99.90
41904;DHT22;27586;51.124;4.182;2022-11-15T09:00:11;10.70;99.90
41904;DHT22;27586;51.124;4.182;2022-11-15T09:02:39;10.80;99.90
41904;DHT22;27586;51.124;4.182;2022-11-15T09:05:05;11.00;99.90
41904;DHT22;27586;51.124;4.182;2022-11-15T09:07:31;11.10;99.90
41904;DHT22;27586;51.124;4.182;2022-11-15T09:09:57;11.20;99.90
41904;DHT22;27586;51.124;4.182;2022-11-15T09:12:23;11.20;99.90
41904;DHT22;27586;51.124;4.182;2022-11-15T09:14:49;11.40;99.90
41904;DHT22;27586;51.124;4.182;2022-11-15T09:17:15;11.40;99.90
41904;DHT22;27586;51.124;4.182;2022-11-15T09:19:41;11.50;99.90
41904;DHT22;27586;51.124;4.182;2022-11-15T09:22:07;11.60;99.90
41904;DHT22;27586;51.124;4.182;2022-11-15T09:24:34;11.70;99.90
41904;DHT22;27586;51.124;4.182;2022-11-15T09:26:59;11.80;99.90
41904;DHT22;27586;51.124;4.182;2022-11-15T09:29:25;11.70;99.90
41904;DHT22;27586;51.124;4.182;2022-11-15T09:31:54;11.80;99.90
41904;DHT22;27586;51.124;4.182;2022-11-15T09:34:20;11.90;99.90
41904;DHT22;27586;51.124;4.182;2022-11-15T09:36:46;11.80;99.90
41904;DHT22;27586;51.124;4.182;2022-11-15T09:39:12;11.90;99.90
41904;DHT22;27586;51.124;4.182;2022-11-15T09:49:28;12.00;99.90
41904;DHT22;27586;51.124;4.182;2022-11-15T09:51:55;12.10;99.90
41904;DHT22;27586;51.124;4.182;2022-11-15T09:56:53;12.20;99.90
41904;DHT22;27586;51.124;4.182;2022-11-15T09:59:50;12.20;99.90
41904;DHT22;27586;51.124;4.182;2022-11-15T10:02:23;12.30;99.90
41904;DHT22;27586;51.124;4.182;2022-11-15T10:04:54;12.30;99.90
41904;DHT22;27586;51.124;4.182;2022-11-15T10:07:27;12.30;99.90
41904;DHT22;27586;51.124;4.182;2022-11-15T10:12:45;12.30;99.90
41904;DHT22;27586;51.124;4.182;2022-11-15T10:15:15;12.30;99.90
41904;DHT22;27586;51.124;4.182;2022-11-15T10:18:08;12.40;99.90
41904;DHT22;27586;51.124;4.182;2022-11-15T10:20:55;12.40;99.90
41904;DHT22;27586;51.124;4.182;2022-11-15T10:23:23;12.60;99.90
41904;DHT22;27586;51.124;4.182;2022-11-15T10:25:55;12.60;99.90
41904;DHT22;27586;51.124;4.182;2022-11-15T10:28:29;12.60;99.90
41904;DHT22;27586;51.124;4.182;2022-11-15T10:30:59;12.60;99.90
41904;DHT22;27586;51.124;4.182;2022-11-15T10:33:37;12.60;99.90
41904;DHT22;27586;51.124;4.182;2022-11-15T10:41:15;12.50;99.90
41904;DHT22;27586;51.124;4.182;2022-11-15T10:43:41;12.50;99.90
41904;DHT22;27586;51.124;4.182;2022-11-15T10:46:20;12.50;99.90
41904;DHT22;27586;51.124;4.182;2022-11-15T10:48:46;12.60;99.90
41904;DHT22;27586;51.124;4.182;2022-11-15T10:51:28;12.60;99.90
41904;DHT22;27586;51.124;4.182;2022-11-15T10:53:58;12.60;99.90
41904;DHT22;27586;51.124;4.182;2022-11-15T10:56:26;12.70;99.90
41904;DHT22;27586;51.124;4.182;2022-11-15T10:58:56;12.60;99.90
41904;DHT22;27586;51.124;4.182;2022-11-15T11:01:24;12.60;99.90
41904;DHT22;27586;51.124;4.182;2022-11-15T11:04:08;12.50;99.90
41904;DHT22;27586;51.124;4.182;2022-11-15T11:06:53;12.50;99.90
41904;DHT22;27586;51.124;4.182;2022-11-15T11:09:39;12.60;99.90
41904;DHT22;27586;51.124;4.182;2022-11-15T11:12:11;12.60;99.90
41904;DHT22;27586;51.124;4.182;2022-11-15T11:14:38;12.80;99.90
41904;DHT22;27586;51.124;4.182;2022-11-15T11:23:29;13.10;99.90
41904;DHT22;27586;51.124;4.182;2022-11-15T11:26:12;13.20;99.90
41904;DHT22;27586;51.124;4.182;2022-11-15T11:37:11;13.10;99.90
41904;DHT22;27586;51.124;4.182;2022-11-15T11:40:04;13.20;99.90
41904;DHT22;27586;51.124;4.182;2022-11-15T11:42:54;13.20;99.90
41904;DHT22;27586;51.124;4.182;2022-11-15T11:48:13;13.10;99.90
41904;DHT22;27586;51.124;4.182;2022-11-15T11:50:41;13.20;99.90
41904;DHT22;27586;51.124;4.182;2022-11-15T11:53:35;13.20;99.90
41904;DHT22;27586;51.124;4.182;2022-11-15T11:56:16;13.20;99.90
41904;DHT22;27586;51.124;4.182;2022-11-15T11:58:46;13.40;99.90
41904;DHT22;27586;51.124;4.182;2022-11-15T12:01:23;13.20;99.90
41904;DHT22;27586;51.124;4.182;2022-11-15T12:09:21;13.30;99.90
41904;DHT22;27586;51.124;4.182;2022-11-15T12:14:40;13.40;99.90
41904;DHT22;27586;51.124;4.182;2022-11-15T12:17:11;13.30;99.90
41904;DHT22;27586;51.124;4.182;2022-11-15T12:19:38;13.40;99.90
41904;DHT22;27586;51.124;4.182;2022-11-15T12:22:21;13.50;99.90
41904;DHT22;27586;51.124;4.182;2022-11-15T12:24:56;13.40;99.90
41904;DHT22;27586;51.124;4.182;2022-11-15T12:30:00;13.40;99.90
41904;DHT22;27586;51.124;4.182;2022-11-15T12:32:28;13.50;99.90
41904;DHT22;27586;51.124;4.182;2022-11-15T12:34:55;13.50;99.90
41904;DHT22;27586;51.124;4.182;2022-11-15T12:40:17;13.50;99.90
41904;DHT22;27586;51.124;4.182;2022-11-15T12:45:41;13.50;99.90
41904;DHT22;27586;51.124;4.182;2022-11-15T12:53:31;13.40;99.90
41904;DHT22;27586;51.124;4.182;2022-11-15T12:58:50;13.60;99.90
41904;DHT22;27586;51.124;4.182;2022-11-15T13:12:06;13.60;99.90
41904;DHT22;27586;51.124;4.182;2022-11-15T13:22:28;13.70;99.90
41904;DHT22;27586;51.124;4.182;2022-11-15T13:30:54;13.60;99.90
41904;DHT22;27586;51.124;4.182;2022-11-15T13:33:28;13.70;99.90
41904;DHT22;27586;51.124;4.182;2022-11-15T13:35:57;13.60;99.90
41904;DHT22;27586;51.124;4.182;2022-11-15T13:38:36;13.60;99.90
41904;DHT22;27586;51.124;4.182;2022-11-15T13:41:21;13.60;99.90
41904;DHT22;27586;51.124;4.182;2022-11-15T13:43:49;13.60;99.90
41904;DHT22;27586;51.124;4.182;2022-11-15T13:46:20;13.60;99.90
41904;DHT22;27586;51.124;4.182;2022-11-15T13:48:55;13.50;99.90
41904;DHT22;27586;51.124;4.182;2022-11-15T13:51:23;13.50;99.90
41904;DHT22;27586;51.124;4.182;2022-11-15T13:56:39;13.50;99.90
41904;DHT22;27586;51.124;4.182;2022-11-15T13:59:27;13.50;99.90
41904;DHT22;27586;51.124;4.182;2022-11-15T14:01:55;13.40;99.90
41904;DHT22;27586;51.124;4.182;2022-11-15T14:04:23;13.50;99.90
41904;DHT22;27586;51.124;4.182;2022-11-15T14:06:55;13.40;99.90
41904;DHT22;27586;51.124;4.182;2022-11-15T14:09:39;13.50;99.90
41904;DHT22;27586;51.124;4.182;2022-11-15T14:12:28;13.50;99.90
41904;DHT22;27586;51.124;4.182;2022-11-15T14:14:54;13.50;99.90
41904;DHT22;27586;51.124;4.182;2022-11-15T14:19:56;13.60;99.90
41904;DHT22;27586;51.124;4.182;2022-11-15T14:22:27;13.50;99.90
41904;DHT22;27586;51.124;4.182;2022-11-15T14:28:13;13.40;99.90
41904;DHT22;27586;51.124;4.182;2022-11-15T14:30:40;13.40;99.90
41904;DHT22;27586;51.124;4.182;2022-11-15T14:33:33;13.40;99.90
41904;DHT22;27586;51.124;4.182;2022-11-15T14:36:20;13.30;99.90
41904;DHT22;27586;51.124;4.182;2022-11-15T14:38:46;13.10;99.90
41904;DHT22;27586;51.124;4.182;2022-11-15T14:41:23;13.10;99.90
41904;DHT22;27586;51.124;4.182;2022-11-15T14:43:50;13.10;99.90
41904;DHT22;27586;51.124;4.182;2022-11-15T14:46:16;13.00;99.90
41904;DHT22;27586;51.124;4.182;2022-11-15T14:48:42;12.90;99.90
41904;DHT22;27586;51.124;4.182;2022-11-15T14:51:12;12.90;99.90
41904;DHT22;27586;51.124;4.182;2022-11-15T14:53:39;12.90;99.90
41904;DHT22;27586;51.124;4.182;2022-11-15T14:56:05;12.90;99.90
41904;DHT22;27586;51.124;4.182;2022-11-15T14:58:30;12.90;99.90
41904;DHT22;27586;51.124;4.182;2022-11-15T15:00:56;12.80;99.90
41904;DHT22;27586;51.124;4.182;2022-11-15T15:03:22;12.70;99.90
41904;DHT22;27586;51.124;4.182;2022-11-15T15:05:47;12.70;99.90
41904;DHT22;27586;51.124;4.182;2022-11-15T15:08:13;12.60;99.90
41904;DHT22;27586;51.124;4.182;2022-11-15T15:10:44;12.60;99.90
41904;DHT22;27586;51.124;4.182;2022-11-15T15:13:22;12.60;99.90
41904;DHT22;27586;51.124;4.182;2022-11-15T15:15:49;12.50;99.90
41904;DHT22;27586;51.124;4.182;2022-11-15T15:18:15;12.50;99.90
41904;DHT22;27586;51.124;4.182;2022-11-15T15:20:42;12.50;99.90
41904;DHT22;27586;51.124;4.182;2022-11-15T15:23:19;12.40;99.90
41904;DHT22;27586;51.124;4.182;2022-11-15T15:25:46;12.40;99.90
41904;DHT22;27586;51.124;4.182;2022-11-15T15:28:13;12.40;99.90
41904;DHT22;27586;51.124;4.182;2022-11-15T15:30:39;12.50;99.90
41904;DHT22;27586;51.124;4.182;2022-11-15T15:33:04;12.50;99.90
41904;DHT22;27586;51.124;4.182;2022-11-15T15:35:32;12.40;99.90
41904;DHT22;27586;51.124;4.182;2022-11-15T15:37:58;12.50;99.90
41904;DHT22;27586;51.124;4.182;2022-11-15T15:40:25;12.40;99.90
41904;DHT22;27586;51.124;4.182;2022-11-15T15:42:51;12.40;99.90
41904;DHT22;27586;51.124;4.182;2022-11-15T15:45:18;12.40;99.90
41904;DHT22;27586;51.124;4.182;2022-11-15T15:47:44;12.40;99.90
41904;DHT22;27586;51.124;4.182;2022-11-15T15:50:33;12.40;99.90
41904;DHT22;27586;51.124;4.182;2022-11-15T15:53:01;12.40;99.90
41904;DHT22;27586;51.124;4.182;2022-11-15T15:55:27;12.50;99.90
41904;DHT22;27586;51.124;4.182;2022-11-15T15:57:53;12.50;99.90
41904;DHT22;27586;51.124;4.182;2022-11-15T16:00:21;12.50;99.90
41904;DHT22;27586;51.124;4.182;2022-11-15T16:02:48;12.40;99.90
41904;DHT22;27586;51.124;4.182;2022-11-15T16:05:14;12.40;99.90
41904;DHT22;27586;51.124;4.182;2022-11-15T16:07:40;12.40;99.90
41904;DHT22;27586;51.124;4.182;2022-11-15T16:12:40;12.40;99.90
41904;DHT22;27586;51.124;4.182;2022-11-15T16:15:06;12.40;99.90
41904;DHT22;27586;51.124;4.182;2022-11-15T16:17:34;12.40;99.90
41904;DHT22;27586;51.124;4.182;2022-11-15T16:20:02;12.30;99.90
41904;DHT22;27586;51.124;4.182;2022-11-15T16:22:28;12.40;99.90
41904;DHT22;27586;51.124;4.182;2022-11-15T16:24:54;12.30;99.90
41904;DHT22;27586;51.124;4.182;2022-11-15T16:27:21;12.40;99.90
41904;DHT22;27586;51.124;4.182;2022-11-15T16:29:48;12.40;99.90
41904;DHT22;27586;51.124;4.182;2022-11-15T16:32:14;12.40;99.90
41904;DHT22;27586;51.124;4.182;2022-11-15T16:34:40;12.40;99.90
41904;DHT22;27586;51.124;4.182;2022-11-15T16:37:22;12.40;99.90
41904;DHT22;27586;51.124;4.182;2022-11-15T16:39:48;12.50;99.90
41904;DHT22;27586;51.124;4.182;2022-11-15T16:42:14;12.30;99.90
41904;DHT22;27586;51.124;4.182;2022-11-15T16:44:39;12.30;99.90
41904;DHT22;27586;51.124;4.182;2022-11-15T16:47:09;12.30;99.90
41904;DHT22;27586;51.124;4.182;2022-11-15T16:49:35;12.30;99.90
41904;DHT22;27586;51.124;4.182;2022-11-15T16:52:01;12.40;99.90
41904;DHT22;27586;51.124;4.182;2022-11-15T16:54:26;12.30;99.90
41904;DHT22;27586;51.124;4.182;2022-11-15T16:56:52;12.40;99.90
41904;DHT22;27586;51.124;4.182;2022-11-15T16:59:18;12.40;99.90
41904;DHT22;27586;51.124;4.182;2022-11-15T17:01:45;12.40;99.90
41904;DHT22;27586;51.124;4.182;2022-11-15T17:04:18;12.40;99.90
41904;DHT22;27586;51.124;4.182;2022-11-15T17:06:46;12.50;99.90
41904;DHT22;27586;51.124;4.182;2022-11-15T17:09:18;12.40;99.90
41904;DHT22;27586;51.124;4.182;2022-11-15T17:11:44;12.40;99.90
41904;DHT22;27586;51.124;4.182;2022-11-15T17:14:10;12.40;99.90
41904;DHT22;27586;51.124;4.182;2022-11-15T17:16:36;12.50;99.90
41904;DHT22;27586;51.124;4.182;2022-11-15T17:19:13;12.50;99.90
41904;DHT22;27586;51.124;4.182;2022-11-15T17:21:39;12.60;99.90
41904;DHT22;27586;51.124;4.182;2022-11-15T17:24:05;12.50;99.90
41904;DHT22;27586;51.124;4.182;2022-11-15T17:26:31;12.40;99.90
41904;DHT22;27586;51.124;4.182;2022-11-15T17:28:57;12.40;99.90
41904;DHT22;27586;51.124;4.182;2022-11-15T17:31:23;12.50;99.90
41904;DHT22;27586;51.124;4.182;2022-11-15T17:33:49;12.50;99.90
41904;DHT22;27586;51.124;4.182;2022-11-15T17:36:15;12.50;99.90
41904;DHT22;27586;51.124;4.182;2022-11-15T17:38:41;12.50;99.90
41904;DHT22;27586;51.124;4.182;2022-11-15T17:41:12;12.50;99.90
41904;DHT22;27586;51.124;4.182;2022-11-15T17:43:39;12.50;99.90
41904;DHT22;27586;51.124;4.182;2022-11-15T17:46:11;12.50;99.90
41904;DHT22;27586;51.124;4.182;2022-11-15T17:48:37;12.50;99.90
41904;DHT22;27586;51.124;4.182;2022-11-15T17:51:05;12.50;99.90
41904;DHT22;27586;51.124;4.182;2022-11-15T17:53:39;12.50;99.90
41904;DHT22;27586;51.124;4.182;2022-11-15T17:56:08;12.40;99.90
41904;DHT22;27586;51.124;4.182;2022-11-15T17:58:34;12.40;99.90
41904;DHT22;27586;51.124;4.182;2022-11-15T18:01:15;12.40;99.90
41904;DHT22;27586;51.124;4.182;2022-11-15T18:03:41;12.40;99.90
41904;DHT22;27586;51.124;4.182;2022-11-15T18:06:07;12.50;99.90
41904;DHT22;27586;51.124;4.182;2022-11-15T18:08:39;12.40;99.90
41904;DHT22;27586;51.124;4.182;2022-11-15T18:11:07;12.50;99.90
41904;DHT22;27586;51.124;4.182;2022-11-15T18:13:35;12.40;99.90
41904;DHT22;27586;51.124;4.182;2022-11-15T18:16:02;12.40;99.90
41904;DHT22;27586;51.124;4.182;2022-11-15T18:18:32;12.50;99.90
41904;DHT22;27586;51.124;4.182;2022-11-15T18:21:11;12.40;99.90
41904;DHT22;27586;51.124;4.182;2022-11-15T18:23:37;12.40;99.90
41904;DHT22;27586;51.124;4.182;2022-11-15T18:26:05;12.40;99.90
41904;DHT22;27586;51.124;4.182;2022-11-15T18:28:39;12.40;99.90
41904;DHT22;27586;51.124;4.182;2022-11-15T18:31:19;12.40;99.90
41904;DHT22;27586;51.124;4.182;2022-11-15T18:33:46;12.40;99.90
41904;DHT22;27586;51.124;4.182;2022-11-15T18:36:15;12.40;99.90
41904;DHT22;27586;51.124;4.182;2022-11-15T18:38:41;12.50;99.90
41904;DHT22;27586;51.124;4.182;2022-11-15T18:41:10;12.50;99.90
41904;DHT22;27586;51.124;4.182;2022-11-15T18:43:37;12.50;99.90
41904;DHT22;27586;51.124;4.182;2022-11-15T18:46:09;12.50;99.90
41904;DHT22;27586;51.124;4.182;2022-11-15T18:48:36;12.50;99.90